sensor_id;sensor_type;location;lat;lon;timestamp;temperature;humidity
10788;DHT22;5446;50.826;4.380;2023-02-03T00:00:37;9.20;99.90
10788;DHT22;5446;50.826;4.380;2023-02-03T00:03:03;9.20;99.90
10788;DHT22;5446;50.826;4.380;2023-02-03T00:05:30;9.20;99.90
10788;DHT22;5446;50.826;4.380;2023-02-03T00:07:58;9.10;99.90
10788;DHT22;5446;50.826;4.380;2023-02-03T00:10:25;9.10;99.90
10788;DHT22;5446;50.826;4.380;2023-02-03T00:12:51;9.10;99.90
10788;DHT22;5446;50.826;4.380;2023-02-03T00:15:18;9.10;99.90
10788;DHT22;5446;50.826;4.380;2023-02-03T00:17:44;9.10;99.90
10788;DHT22;5446;50.826;4.380;2023-02-03T00:20:11;9.10;99.90
10788;DHT22;5446;50.826;4.380;2023-02-03T00:22:37;9.10;99.90
10788;DHT22;5446;50.826;4.380;2023-02-03T00:25:03;9.10;99.90
10788;DHT22;5446;50.826;4.380;2023-02-03T00:27:29;9.10;99.90
10788;DHT22;5446;50.826;4.380;2023-02-03T00:29:55;9.10;99.90
10788;DHT22;5446;50.826;4.380;2023-02-03T00:32:20;9.10;99.90
10788;DHT22;5446;50.826;4.380;2023-02-03T00:34:48;9.10;99.90
10788;DHT22;5446;50.826;4.380;2023-02-03T00:37:15;9.10;99.90
10788;DHT22;5446;50.826;4.380;2023-02-03T00:39:42;9.10;99.90
10788;DHT22;5446;50.826;4.380;2023-02-03T00:42:08;9.10;99.90
10788;DHT22;5446;50.826;4.380;2023-02-03T00:44:34;9.10;99.90
10788;DHT22;5446;50.826;4.380;2023-02-03T00:47:00;9.10;99.90
10788;DHT22;5446;50.826;4.380;2023-02-03T00:49:26;9.10;99.90
10788;DHT22;5446;50.826;4.380;2023-02-03T00:51:52;9.10;99.90
10788;DHT22;5446;50.826;4.380;2023-02-03T00:54:19;9.10;99.90
10788;DHT22;5446;50.826;4.380;2023-02-03T00:56:44;9.20;99.90
10788;DHT22;5446;50.826;4.380;2023-02-03T00:59:10;9.20;99.90
10788;DHT22;5446;50.826;4.380;2023-02-03T01:01:36;9.20;99.90
10788;DHT22;5446;50.826;4.380;2023-02-03T01:04:02;9.20;99.90
10788;DHT22;5446;50.826;4.380;2023-02-03T01:06:28;9.20;99.90
10788;DHT22;5446;50.826;4.380;2023-02-03T01:08:54;9.20;99.90
10788;DHT22;5446;50.826;4.380;2023-02-03T01:11:22;9.20;99.90
10788;DHT22;5446;50.826;4.380;2023-02-03T01:13:49;9.20;99.90
10788;DHT22;5446;50.826;4.380;2023-02-03T01:16:16;9.20;99.90
10788;DHT22;5446;50.826;4.380;2023-02-03T01:18:44;9.20;99.90
10788;DHT22;5446;50.826;4.380;2023-02-03T01:21:13;9.20;99.90
10788;DHT22;5446;50.826;4.380;2023-02-03T01:23:39;9.20;99.90
10788;DHT22;5446;50.826;4.380;2023-02-03T01:26:07;9.30;99.90
10788;DHT22;5446;50.826;4.380;2023-02-03T01:28:33;9.30;99.90
10788;DHT22;5446;50.826;4.380;2023-02-03T01:31:12;9.30;99.90
10788;DHT22;5446;50.826;4.380;2023-02-03T01:33:39;9.30;99.90
10788;DHT22;5446;50.826;4.380;2023-02-03T01:36:09;9.30;99.90
10788;DHT22;5446;50.826;4.380;2023-02-03T01:38:36;9.30;99.90
10788;DHT22;5446;50.826;4.380;2023-02-03T01:41:03;9.30;99.90
10788;DHT22;5446;50.826;4.380;2023-02-03T01:43:34;9.30;99.90
10788;DHT22;5446;50.826;4.380;2023-02-03T01:46:03;9.30;99.90
10788;DHT22;5446;50.826;4.380;2023-02-03T01:48:33;9.30;99.90
10788;DHT22;5446;50.826;4.380;2023-02-03T01:51:01;9.30;99.90
10788;DHT22;5446;50.826;4.380;2023-02-03T01:53:28;9.30;99.90
10788;DHT22;5446;50.826;4.380;2023-02-03T01:55:55;9.30;99.90
10788;DHT22;5446;50.826;4.380;2023-02-03T01:58:28;9.30;99.90
10788;DHT22;5446;50.826;4.380;2023-02-03T02:00:57;9.30;99.90
10788;DHT22;5446;50.826;4.380;2023-02-03T02:03:47;9.30;99.90
10788;DHT22;5446;50.826;4.380;2023-02-03T02:06:13;9.30;99.90
10788;DHT22;5446;50.826;4.380;2023-02-03T02:08:41;9.30;99.90
10788;DHT22;5446;50.826;4.380;2023-02-03T02:11:08;9.30;99.90
10788;DHT22;5446;50.826;4.380;2023-02-03T02:13:34;9.30;99.90
10788;DHT22;5446;50.826;4.380;2023-02-03T02:20:02;9.40;99.90
10788;DHT22;5446;50.826;4.380;2023-02-03T02:36:31;9.40;99.90
10788;DHT22;5446;50.826;4.380;2023-02-03T02:39:12;9.40;99.90
10788;DHT22;5446;50.826;4.380;2023-02-03T02:41:43;9.40;99.90
10788;DHT22;5446;50.826;4.380;2023-02-03T02:44:24;9.40;99.90
10788;DHT22;5446;50.826;4.380;2023-02-03T02:46:52;9.40;99.90
10788;DHT22;5446;50.826;4.380;2023-02-03T02:49:24;9.40;99.90
10788;DHT22;5446;50.826;4.380;2023-02-03T02:51:52;9.40;99.90
10788;DHT22;5446;50.826;4.380;2023-02-03T02:54:21;9.40;99.90
10788;DHT22;5446;50.826;4.380;2023-02-03T02:56:51;9.40;99.90
10788;DHT22;5446;50.826;4.380;2023-02-03T02:59:18;9.40;99.90
10788;DHT22;5446;50.826;4.380;2023-02-03T03:01:43;9.40;99.90
10788;DHT22;5446;50.826;4.380;2023-02-03T03:04:11;9.40;99.90
10788;DHT22;5446;50.826;4.380;2023-02-03T03:06:48;9.40;99.90
10788;DHT22;5446;50.826;4.380;2023-02-03T03:09:23;9.40;99.90
10788;DHT22;5446;50.826;4.380;2023-02-03T03:11:53;9.40;99.90
10788;DHT22;5446;50.826;4.380;2023-02-03T03:14:22;9.40;99.90
10788;DHT22;5446;50.826;4.380;2023-02-03T03:16:53;9.40;99.90
10788;DHT22;5446;50.826;4.380;2023-02-03T03:19:24;9.40;99.90
10788;DHT22;5446;50.826;4.380;2023-02-03T03:21:54;9.40;99.90
10788;DHT22;5446;50.826;4.380;2023-02-03T03:24:30;9.40;99.90
10788;DHT22;5446;50.826;4.380;2023-02-03T03:27:01;9.40;99.90
10788;DHT22;5446;50.826;4.380;2023-02-03T03:32:04;9.40;99.90
10788;DHT22;5446;50.826;4.380;2023-02-03T03:34:30;9.40;99.90
10788;DHT22;5446;50.826;4.380;2023-02-03T03:47:23;9.40;99.90
10788;DHT22;5446;50.826;4.380;2023-02-03T03:49:52;9.40;99.90
10788;DHT22;5446;50.826;4.380;2023-02-03T03:52:22;9.40;99.90
10788;DHT22;5446;50.826;4.380;2023-02-03T03:54:49;9.40;99.90
10788;DHT22;5446;50.826;4.380;2023-02-03T03:57:44;9.40;99.90
10788;DHT22;5446;50.826;4.380;2023-02-03T04:00:14;9.40;99.90
10788;DHT22;5446;50.826;4.380;2023-02-03T04:02:45;9.40;99.90
10788;DHT22;5446;50.826;4.380;2023-02-03T04:05:14;9.40;99.90
10788;DHT22;5446;50.826;4.380;2023-02-03T04:07:42;9.40;99.90
10788;DHT22;5446;50.826;4.380;2023-02-03T04:10:35;9.40;99.90
10788;DHT22;5446;50.826;4.380;2023-02-03T04:13:01;9.40;99.90
10788;DHT22;5446;50.826;4.380;2023-02-03T04:15:29;9.40;99.90
10788;DHT22;5446;50.826;4.380;2023-02-03T04:17:55;9.40;99.90
10788;DHT22;5446;50.826;4.380;2023-02-03T04:20:22;9.40;99.90
10788;DHT22;5446;50.826;4.380;2023-02-03T04:22:48;9.40;99.90
10788;DHT22;5446;50.826;4.380;2023-02-03T04:25:14;9.40;99.90
10788;DHT22;5446;50.826;4.380;2023-02-03T04:27:39;9.40;99.90
10788;DHT22;5446;50.826;4.380;2023-02-03T04:30:06;9.40;99.90
10788;DHT22;5446;50.826;4.380;2023-02-03T04:32:32;9.40;99.90
10788;DHT22;5446;50.826;4.380;2023-02-03T04:35:00;9.40;99.90
10788;DHT22;5446;50.826;4.380;2023-02-03T04:37:26;9.40;99.90
10788;DHT22;5446;50.826;4.380;2023-02-03T04:39:55;9.40;99.90
10788;DHT22;5446;50.826;4.380;2023-02-03T04:42:22;9.40;99.90
10788;DHT22;5446;50.826;4.380;2023-02-03T04:44:48;9.40;99.90
10788;DHT22;5446;50.826;4.380;2023-02-03T04:47:14;9.40;99.90
10788;DHT22;5446;50.826;4.380;2023-02-03T04:49:40;9.40;99.90
10788;DHT22;5446;50.826;4.380;2023-02-03T04:52:05;9.40;99.90
10788;DHT22;5446;50.826;4.380;2023-02-03T04:54:31;9.40;99.90
10788;DHT22;5446;50.826;4.380;2023-02-03T04:56:57;9.40;99.90
10788;DHT22;5446;50.826;4.380;2023-02-03T04:59:23;9.40;99.90
10788;DHT22;5446;50.826;4.380;2023-02-03T05:01:48;9.40;99.90
10788;DHT22;5446;50.826;4.380;2023-02-03T05:04:14;9.40;99.90
10788;DHT22;5446;50.826;4.380;2023-02-03T05:06:40;9.40;99.90
10788;DHT22;5446;50.826;4.380;2023-02-03T05:09:06;9.40;99.90
10788;DHT22;5446;50.826;4.380;2023-02-03T05:11:32;9.40;99.90
10788;DHT22;5446;50.826;4.380;2023-02-03T05:13:58;9.40;99.90
10788;DHT22;5446;50.826;4.380;2023-02-03T05:16:23;9.30;99.90
10788;DHT22;5446;50.826;4.380;2023-02-03T05:18:49;9.40;99.90
10788;DHT22;5446;50.826;4.380;2023-02-03T05:21:15;9.40;99.90
10788;DHT22;5446;50.826;4.380;2023-02-03T05:23:41;9.30;99.90
10788;DHT22;5446;50.826;4.380;2023-02-03T05:26:07;9.30;99.90
10788;DHT22;5446;50.826;4.380;2023-02-03T05:28:33;9.30;99.90
10788;DHT22;5446;50.826;4.380;2023-02-03T05:31:00;9.30;99.90
10788;DHT22;5446;50.826;4.380;2023-02-03T05:33:26;9.30;99.90
10788;DHT22;5446;50.826;4.380;2023-02-03T05:35:52;9.30;99.90
10788;DHT22;5446;50.826;4.380;2023-02-03T05:38:18;9.30;99.90
10788;DHT22;5446;50.826;4.380;2023-02-03T05:40:47;9.40;99.90
10788;DHT22;5446;50.826;4.380;2023-02-03T05:43:31;9.30;99.90
10788;DHT22;5446;50.826;4.380;2023-02-03T05:46:04;9.30;99.90
10788;DHT22;5446;50.826;4.380;2023-02-03T05:48:31;9.30;99.90
10788;DHT22;5446;50.826;4.380;2023-02-03T05:50:57;9.30;99.90
10788;DHT22;5446;50.826;4.380;2023-02-03T05:53:24;9.30;99.90
10788;DHT22;5446;50.826;4.380;2023-02-03T05:55:50;9.30;99.90
10788;DHT22;5446;50.826;4.380;2023-02-03T05:58:16;9.30;99.90
10788;DHT22;5446;50.826;4.380;2023-02-03T06:00:42;9.40;99.90
10788;DHT22;5446;50.826;4.380;2023-02-03T06:03:08;9.30;99.90
10788;DHT22;5446;50.826;4.380;2023-02-03T06:05:34;9.40;99.90
10788;DHT22;5446;50.826;4.380;2023-02-03T06:08:02;9.40;99.90
10788;DHT22;5446;50.826;4.380;2023-02-03T06:10:28;9.40;99.90
10788;DHT22;5446;50.826;4.380;2023-02-03T06:12:53;9.40;99.90
10788;DHT22;5446;50.826;4.380;2023-02-03T06:15:19;9.40;99.90
10788;DHT22;5446;50.826;4.380;2023-02-03T06:17:47;9.40;99.90
10788;DHT22;5446;50.826;4.380;2023-02-03T06:20:15;9.40;99.90
10788;DHT22;5446;50.826;4.380;2023-02-03T06:22:42;9.40;99.90
10788;DHT22;5446;50.826;4.380;2023-02-03T06:25:08;9.40;99.90
10788;DHT22;5446;50.826;4.380;2023-02-03T06:27:33;9.40;99.90
10788;DHT22;5446;50.826;4.380;2023-02-03T06:29:59;9.40;99.90
10788;DHT22;5446;50.826;4.380;2023-02-03T06:32:25;9.40;99.90
10788;DHT22;5446;50.826;4.380;2023-02-03T06:34:50;9.40;99.90
10788;DHT22;5446;50.826;4.380;2023-02-03T06:37:17;9.40;99.90
10788;DHT22;5446;50.826;4.380;2023-02-03T06:39:42;9.40;99.90
10788;DHT22;5446;50.826;4.380;2023-02-03T06:42:08;9.40;99.90
10788;DHT22;5446;50.826;4.380;2023-02-03T06:44:34;9.40;99.90
10788;DHT22;5446;50.826;4.380;2023-02-03T06:47:00;9.40;99.90
10788;DHT22;5446;50.826;4.380;2023-02-03T06:49:27;9.40;99.90
10788;DHT22;5446;50.826;4.380;2023-02-03T06:51:54;9.50;99.90
10788;DHT22;5446;50.826;4.380;2023-02-03T06:54:20;9.40;99.90
10788;DHT22;5446;50.826;4.380;2023-02-03T06:56:45;9.40;99.90
10788;DHT22;5446;50.826;4.380;2023-02-03T06:59:12;9.40;99.90
10788;DHT22;5446;50.826;4.380;2023-02-03T07:01:38;9.40;99.90
10788;DHT22;5446;50.826;4.380;2023-02-03T07:04:05;9.40;99.90
10788;DHT22;5446;50.826;4.380;2023-02-03T07:06:31;9.40;99.90
10788;DHT22;5446;50.826;4.380;2023-02-03T07:09:02;9.40;99.90
10788;DHT22;5446;50.826;4.380;2023-02-03T07:11:29;9.50;99.90
10788;DHT22;5446;50.826;4.380;2023-02-03T07:13:55;9.50;99.90
10788;DHT22;5446;50.826;4.380;2023-02-03T07:16:21;9.40;99.90
10788;DHT22;5446;50.826;4.380;2023-02-03T07:18:46;9.50;99.90
10788;DHT22;5446;50.826;4.380;2023-02-03T07:21:13;9.50;99.90
10788;DHT22;5446;50.826;4.380;2023-02-03T07:23:39;9.50;99.90
10788;DHT22;5446;50.826;4.380;2023-02-03T07:26:06;9.50;99.90
10788;DHT22;5446;50.826;4.380;2023-02-03T07:28:34;9.50;99.90
10788;DHT22;5446;50.826;4.380;2023-02-03T07:31:00;9.50;99.90
10788;DHT22;5446;50.826;4.380;2023-02-03T07:33:27;9.50;99.90
10788;DHT22;5446;50.826;4.380;2023-02-03T07:35:58;9.50;99.90
10788;DHT22;5446;50.826;4.380;2023-02-03T07:38:26;9.50;99.90
10788;DHT22;5446;50.826;4.380;2023-02-03T07:40:52;9.50;99.90
10788;DHT22;5446;50.826;4.380;2023-02-03T07:43:18;9.50;99.90
10788;DHT22;5446;50.826;4.380;2023-02-03T07:45:44;9.50;99.90
10788;DHT22;5446;50.826;4.380;2023-02-03T07:48:10;9.50;99.90
10788;DHT22;5446;50.826;4.380;2023-02-03T07:50:36;9.50;99.90
10788;DHT22;5446;50.826;4.380;2023-02-03T07:53:02;9.50;99.90
10788;DHT22;5446;50.826;4.380;2023-02-03T07:55:28;9.50;99.90
10788;DHT22;5446;50.826;4.380;2023-02-03T07:57:58;9.50;99.90
10788;DHT22;5446;50.826;4.380;2023-02-03T08:00:24;9.50;99.90
10788;DHT22;5446;50.826;4.380;2023-02-03T08:02:51;9.50;99.90
10788;DHT22;5446;50.826;4.380;2023-02-03T08:05:17;9.50;99.90
10788;DHT22;5446;50.826;4.380;2023-02-03T08:07:44;9.50;99.90
10788;DHT22;5446;50.826;4.380;2023-02-03T08:10:11;9.50;99.90
10788;DHT22;5446;50.826;4.380;2023-02-03T08:12:38;9.50;99.90
10788;DHT22;5446;50.826;4.380;2023-02-03T08:15:04;9.50;99.90
10788;DHT22;5446;50.826;4.380;2023-02-03T08:17:30;9.50;99.90
10788;DHT22;5446;50.826;4.380;2023-02-03T08:19:58;9.50;99.90
10788;DHT22;5446;50.826;4.380;2023-02-03T08:22:23;9.50;99.90
10788;DHT22;5446;50.826;4.380;2023-02-03T08:24:49;9.50;99.90
10788;DHT22;5446;50.826;4.380;2023-02-03T08:27:18;9.60;99.90
10788;DHT22;5446;50.826;4.380;2023-02-03T08:29:44;9.50;99.90
10788;DHT22;5446;50.826;4.380;2023-02-03T08:32:20;9.60;99.90
10788;DHT22;5446;50.826;4.380;2023-02-03T08:34:48;9.50;99.90
10788;DHT22;5446;50.826;4.380;2023-02-03T08:37:15;9.60;99.90
10788;DHT22;5446;50.826;4.380;2023-02-03T08:39:41;9.60;99.90
10788;DHT22;5446;50.826;4.380;2023-02-03T08:42:07;9.60;99.90
10788;DHT22;5446;50.826;4.380;2023-02-03T08:44:33;9.60;99.90
10788;DHT22;5446;50.826;4.380;2023-02-03T08:46:59;9.60;99.90
10788;DHT22;5446;50.826;4.380;2023-02-03T08:49:27;9.70;99.90
10788;DHT22;5446;50.826;4.380;2023-02-03T08:51:54;9.70;99.90
10788;DHT22;5446;50.826;4.380;2023-02-03T08:54:20;9.70;99.90
10788;DHT22;5446;50.826;4.380;2023-02-03T08:56:46;9.70;99.90
10788;DHT22;5446;50.826;4.380;2023-02-03T08:59:12;9.70;99.90
10788;DHT22;5446;50.826;4.380;2023-02-03T09:01:39;9.70;99.90
10788;DHT22;5446;50.826;4.380;2023-02-03T09:04:06;9.80;99.90
10788;DHT22;5446;50.826;4.380;2023-02-03T09:06:34;9.80;99.90
10788;DHT22;5446;50.826;4.380;2023-02-03T09:09:00;9.80;99.90
10788;DHT22;5446;50.826;4.380;2023-02-03T09:11:25;9.80;99.90
10788;DHT22;5446;50.826;4.380;2023-02-03T09:13:51;9.80;99.90
10788;DHT22;5446;50.826;4.380;2023-02-03T09:16:18;9.80;99.90
10788;DHT22;5446;50.826;4.380;2023-02-03T09:18:46;9.90;99.90
10788;DHT22;5446;50.826;4.380;2023-02-03T09:21:13;9.90;99.90
10788;DHT22;5446;50.826;4.380;2023-02-03T09:23:41;9.90;99.90
10788;DHT22;5446;50.826;4.380;2023-02-03T09:26:09;9.90;99.90
10788;DHT22;5446;50.826;4.380;2023-02-03T09:28:35;9.90;99.90
10788;DHT22;5446;50.826;4.380;2023-02-03T09:31:06;9.90;99.90
10788;DHT22;5446;50.826;4.380;2023-02-03T09:33:33;9.90;99.90
10788;DHT22;5446;50.826;4.380;2023-02-03T09:35:59;10.00;99.90
10788;DHT22;5446;50.826;4.380;2023-02-03T09:38:25;10.00;99.90
10788;DHT22;5446;50.826;4.380;2023-02-03T09:41:43;10.00;99.90
10788;DHT22;5446;50.826;4.380;2023-02-03T09:46:41;10.00;99.90
10788;DHT22;5446;50.826;4.380;2023-02-03T09:49:21;10.00;99.90
10788;DHT22;5446;50.826;4.380;2023-02-03T09:51:51;10.00;99.90
10788;DHT22;5446;50.826;4.380;2023-02-03T09:56:58;10.00;99.90
10788;DHT22;5446;50.826;4.380;2023-02-03T09:59:26;10.10;99.90
10788;DHT22;5446;50.826;4.380;2023-02-03T10:18:43;10.20;99.90
10788;DHT22;5446;50.826;4.380;2023-02-03T10:21:18;10.30;99.90
10788;DHT22;5446;50.826;4.380;2023-02-03T10:23:47;10.30;99.90
10788;DHT22;5446;50.826;4.380;2023-02-03T10:26:18;10.30;99.90
10788;DHT22;5446;50.826;4.380;2023-02-03T10:28:52;10.40;99.90
10788;DHT22;5446;50.826;4.380;2023-02-03T10:31:24;10.40;99.90
10788;DHT22;5446;50.826;4.380;2023-02-03T10:34:12;10.40;99.90
10788;DHT22;5446;50.826;4.380;2023-02-03T10:39:46;10.50;99.90
10788;DHT22;5446;50.826;4.380;2023-02-03T10:42:12;10.50;99.90
10788;DHT22;5446;50.826;4.380;2023-02-03T10:48:05;10.60;99.90
10788;DHT22;5446;50.826;4.380;2023-02-03T10:50:25;10.40;99.90
10788;DHT22;5446;50.826;4.380;2023-02-03T10:53:18;10.50;99.90
10788;DHT22;5446;50.826;4.380;2023-02-03T10:55:51;10.60;99.90
10788;DHT22;5446;50.826;4.380;2023-02-03T10:58:26;10.50;99.90
10788;DHT22;5446;50.826;4.380;2023-02-03T11:01:14;10.50;99.90
10788;DHT22;5446;50.826;4.380;2023-02-03T11:03:42;10.60;99.90
10788;DHT22;5446;50.826;4.380;2023-02-03T11:06:12;10.50;99.90
10788;DHT22;5446;50.826;4.380;2023-02-03T11:08:41;10.50;99.90
10788;DHT22;5446;50.826;4.380;2023-02-03T11:11:12;10.50;99.90
10788;DHT22;5446;50.826;4.380;2023-02-03T11:13:38;10.50;99.90
10788;DHT22;5446;50.826;4.380;2023-02-03T11:16:05;10.50;99.90
10788;DHT22;5446;50.826;4.380;2023-02-03T11:18:58;10.40;99.90
10788;DHT22;5446;50.826;4.380;2023-02-03T11:21:46;10.40;99.90
10788;DHT22;5446;50.826;4.380;2023-02-03T11:26:48;10.40;99.90
10788;DHT22;5446;50.826;4.380;2023-02-03T11:29:28;10.40;99.90
10788;DHT22;5446;50.826;4.380;2023-02-03T11:31:56;10.40;99.90
10788;DHT22;5446;50.826;4.380;2023-02-03T11:34:34;10.40;99.90
10788;DHT22;5446;50.826;4.380;2023-02-03T11:37:24;10.40;99.90
10788;DHT22;5446;50.826;4.380;2023-02-03T11:40:40;10.50;99.90
10788;DHT22;5446;50.826;4.380;2023-02-03T11:42:44;10.40;99.90
10788;DHT22;5446;50.826;4.380;2023-02-03T11:56:19;10.20;99.90
10788;DHT22;5446;50.826;4.380;2023-02-03T11:59:21;10.20;99.90
10788;DHT22;5446;50.826;4.380;2023-02-03T12:13:52;10.40;99.90
10788;DHT22;5446;50.826;4.380;2023-02-03T12:19:36;10.40;99.90
10788;DHT22;5446;50.826;4.380;2023-02-03T12:22:32;10.50;99.90
10788;DHT22;5446;50.826;4.380;2023-02-03T12:25:15;10.50;99.90
10788;DHT22;5446;50.826;4.380;2023-02-03T12:28:46;10.50;99.90
10788;DHT22;5446;50.826;4.380;2023-02-03T12:30:53;10.50;99.90
10788;DHT22;5446;50.826;4.380;2023-02-03T12:33:28;10.60;99.90
10788;DHT22;5446;50.826;4.380;2023-02-03T12:36:12;10.60;99.90
10788;DHT22;5446;50.826;4.380;2023-02-03T12:38:57;10.60;99.90
10788;DHT22;5446;50.826;4.380;2023-02-03T12:41:33;10.60;99.90
10788;DHT22;5446;50.826;4.380;2023-02-03T12:44:28;10.70;99.90
10788;DHT22;5446;50.826;4.380;2023-02-03T12:49:59;10.70;99.90
10788;DHT22;5446;50.826;4.380;2023-02-03T12:52:38;10.60;99.90
10788;DHT22;5446;50.826;4.380;2023-02-03T12:58:12;10.70;99.90
10788;DHT22;5446;50.826;4.380;2023-02-03T13:04:14;10.70;99.90
10788;DHT22;5446;50.826;4.380;2023-02-03T13:09:37;10.80;99.90
10788;DHT22;5446;50.826;4.380;2023-02-03T13:12:16;10.80;99.90
10788;DHT22;5446;50.826;4.380;2023-02-03T13:20:19;10.90;99.90
10788;DHT22;5446;50.826;4.380;2023-02-03T13:22:45;10.90;99.90
10788;DHT22;5446;50.826;4.380;2023-02-03T13:35:59;10.90;99.90
10788;DHT22;5446;50.826;4.380;2023-02-03T13:44:01;11.00;99.90
10788;DHT22;5446;50.826;4.380;2023-02-03T13:46:31;11.10;99.90
10788;DHT22;5446;50.826;4.380;2023-02-03T13:49:00;11.10;99.90
10788;DHT22;5446;50.826;4.380;2023-02-03T13:51:29;11.00;99.90
10788;DHT22;5446;50.826;4.380;2023-02-03T13:54:15;11.00;99.90
10788;DHT22;5446;50.826;4.380;2023-02-03T13:56:41;11.00;99.90
10788;DHT22;5446;50.826;4.380;2023-02-03T14:01:43;11.10;99.90
10788;DHT22;5446;50.826;4.380;2023-02-03T14:07:03;11.00;99.90
10788;DHT22;5446;50.826;4.380;2023-02-03T14:12:12;11.00;99.90
10788;DHT22;5446;50.826;4.380;2023-02-03T14:17:03;11.00;99.90
10788;DHT22;5446;50.826;4.380;2023-02-03T14:22:04;11.10;99.90
10788;DHT22;5446;50.826;4.380;2023-02-03T14:24:38;11.10;99.90
10788;DHT22;5446;50.826;4.380;2023-02-03T14:27:26;11.10;99.90
10788;DHT22;5446;50.826;4.380;2023-02-03T14:30:11;11.10;99.90
10788;DHT22;5446;50.826;4.380;2023-02-03T14:33:00;11.10;99.90
10788;DHT22;5446;50.826;4.380;2023-02-03T14:35:32;11.10;99.90
10788;DHT22;5446;50.826;4.380;2023-02-03T14:38:05;11.10;99.90
10788;DHT22;5446;50.826;4.380;2023-02-03T14:57:19;11.10;99.90
10788;DHT22;5446;50.826;4.380;2023-02-03T15:08:37;11.10;99.90
10788;DHT22;5446;50.826;4.380;2023-02-03T15:11:26;11.10;99.90
10788;DHT22;5446;50.826;4.380;2023-02-03T15:13:55;11.10;99.90
10788;DHT22;5446;50.826;4.380;2023-02-03T15:16:23;11.20;99.90
10788;DHT22;5446;50.826;4.380;2023-02-03T15:18:59;11.10;99.90
10788;DHT22;5446;50.826;4.380;2023-02-03T15:21:31;11.10;99.90
10788;DHT22;5446;50.826;4.380;2023-02-03T15:23:58;11.10;99.90
10788;DHT22;5446;50.826;4.380;2023-02-03T15:26:25;11.10;99.90
10788;DHT22;5446;50.826;4.380;2023-02-03T15:29:02;11.10;99.90
10788;DHT22;5446;50.826;4.380;2023-02-03T15:34:15;11.10;99.90
10788;DHT22;5446;50.826;4.380;2023-02-03T15:36:47;11.10;99.90
10788;DHT22;5446;50.826;4.380;2023-02-03T15:41:48;11.10;99.90
10788;DHT22;5446;50.826;4.380;2023-02-03T15:44:33;11.10;99.90
10788;DHT22;5446;50.826;4.380;2023-02-03T15:47:02;11.10;99.90
10788;DHT22;5446;50.826;4.380;2023-02-03T15:49:35;11.10;99.90
10788;DHT22;5446;50.826;4.380;2023-02-03T15:52:12;11.10;99.90
10788;DHT22;5446;50.826;4.380;2023-02-03T15:54:43;11.10;99.90
10788;DHT22;5446;50.826;4.380;2023-02-03T15:57:23;11.10;99.90
10788;DHT22;5446;50.826;4.380;2023-02-03T15:59:58;11.10;99.90
10788;DHT22;5446;50.826;4.380;2023-02-03T16:02:32;11.00;99.90
10788;DHT22;5446;50.826;4.380;2023-02-03T16:05:03;11.00;99.90
10788;DHT22;5446;50.826;4.380;2023-02-03T16:07:30;11.00;99.90
10788;DHT22;5446;50.826;4.380;2023-02-03T16:09:57;11.00;99.90
10788;DHT22;5446;50.826;4.380;2023-02-03T16:12:30;11.00;99.90
10788;DHT22;5446;50.826;4.380;2023-02-03T16:14:58;11.00;99.90
10788;DHT22;5446;50.826;4.380;2023-02-03T16:17:33;11.10;99.90
10788;DHT22;5446;50.826;4.380;2023-02-03T16:25:21;11.00;99.90
10788;DHT22;5446;50.826;4.380;2023-02-03T16:28:15;11.00;99.90
10788;DHT22;5446;50.826;4.380;2023-02-03T16:31:02;11.00;99.90
10788;DHT22;5446;50.826;4.380;2023-02-03T16:33:56;11.00;99.90
10788;DHT22;5446;50.826;4.380;2023-02-03T16:36:42;11.00;99.90
10788;DHT22;5446;50.826;4.380;2023-02-03T16:39:26;11.00;99.90
10788;DHT22;5446;50.826;4.380;2023-02-03T16:42:19;11.00;99.90
10788;DHT22;5446;50.826;4.380;2023-02-03T16:45:15;11.00;99.90
10788;DHT22;5446;50.826;4.380;2023-02-03T16:48:00;11.00;99.90
10788;DHT22;5446;50.826;4.380;2023-02-03T16:50:45;10.90;99.90
10788;DHT22;5446;50.826;4.380;2023-02-03T16:53:22;10.90;99.90
10788;DHT22;5446;50.826;4.380;2023-02-03T16:55:50;10.90;99.90
10788;DHT22;5446;50.826;4.380;2023-02-03T16:58:16;10.90;99.90
10788;DHT22;5446;50.826;4.380;2023-02-03T17:00:43;10.90;99.90
10788;DHT22;5446;50.826;4.380;2023-02-03T17:03:11;10.90;99.90
10788;DHT22;5446;50.826;4.380;2023-02-03T17:05:38;10.90;99.90
10788;DHT22;5446;50.826;4.380;2023-02-03T17:08:05;10.90;99.90
10788;DHT22;5446;50.826;4.380;2023-02-03T17:10:33;10.80;99.90
10788;DHT22;5446;50.826;4.380;2023-02-03T17:12:59;10.80;99.90
10788;DHT22;5446;50.826;4.380;2023-02-03T17:15:25;10.80;99.90
10788;DHT22;5446;50.826;4.380;2023-02-03T17:17:51;10.80;99.90
10788;DHT22;5446;50.826;4.380;2023-02-03T17:20:17;10.80;99.90
10788;DHT22;5446;50.826;4.380;2023-02-03T17:22:42;10.80;99.90
10788;DHT22;5446;50.826;4.380;2023-02-03T17:25:08;10.90;99.90
10788;DHT22;5446;50.826;4.380;2023-02-03T17:27:34;10.90;99.90
10788;DHT22;5446;50.826;4.380;2023-02-03T17:30:04;10.80;99.90
10788;DHT22;5446;50.826;4.380;2023-02-03T17:32:33;10.80;99.90
10788;DHT22;5446;50.826;4.380;2023-02-03T17:34:58;10.80;99.90
10788;DHT22;5446;50.826;4.380;2023-02-03T17:37:24;10.80;99.90
10788;DHT22;5446;50.826;4.380;2023-02-03T17:39:50;10.70;99.90
10788;DHT22;5446;50.826;4.380;2023-02-03T17:42:16;10.70;99.90
10788;DHT22;5446;50.826;4.380;2023-02-03T17:44:42;10.70;99.90
10788;DHT22;5446;50.826;4.380;2023-02-03T17:47:07;10.60;99.90
10788;DHT22;5446;50.826;4.380;2023-02-03T17:49:33;10.60;99.90
10788;DHT22;5446;50.826;4.380;2023-02-03T17:51:59;10.50;99.90
10788;DHT22;5446;50.826;4.380;2023-02-03T17:54:25;10.50;99.90
10788;DHT22;5446;50.826;4.380;2023-02-03T17:56:52;10.50;99.90
10788;DHT22;5446;50.826;4.380;2023-02-03T17:59:25;10.60;99.90
10788;DHT22;5446;50.826;4.380;2023-02-03T18:01:55;10.50;99.90
10788;DHT22;5446;50.826;4.380;2023-02-03T18:04:24;10.50;99.90
10788;DHT22;5446;50.826;4.380;2023-02-03T18:06:56;10.50;99.90
10788;DHT22;5446;50.826;4.380;2023-02-03T18:09:22;10.50;99.90
10788;DHT22;5446;50.826;4.380;2023-02-03T18:11:48;10.50;99.90
10788;DHT22;5446;50.826;4.380;2023-02-03T18:14:14;10.50;99.90
10788;DHT22;5446;50.826;4.380;2023-02-03T18:16:41;10.50;99.90
10788;DHT22;5446;50.826;4.380;2023-02-03T18:19:12;10.50;99.90
10788;DHT22;5446;50.826;4.380;2023-02-03T18:21:39;10.60;99.90
10788;DHT22;5446;50.826;4.380;2023-02-03T18:24:06;10.60;99.90
10788;DHT22;5446;50.826;4.380;2023-02-03T18:26:33;10.60;99.90
10788;DHT22;5446;50.826;4.380;2023-02-03T18:29:03;10.60;99.90
10788;DHT22;5446;50.826;4.380;2023-02-03T18:31:29;10.60;99.90
10788;DHT22;5446;50.826;4.380;2023-02-03T18:33:55;10.60;99.90
10788;DHT22;5446;50.826;4.380;2023-02-03T18:36:25;10.60;99.90
10788;DHT22;5446;50.826;4.380;2023-02-03T18:38:50;10.50;99.90
10788;DHT22;5446;50.826;4.380;2023-02-03T18:41:20;10.60;99.90
10788;DHT22;5446;50.826;4.380;2023-02-03T18:43:46;10.60;99.90
10788;DHT22;5446;50.826;4.380;2023-02-03T18:48:43;10.60;99.90
10788;DHT22;5446;50.826;4.380;2023-02-03T18:51:10;10.50;99.90
10788;DHT22;5446;50.826;4.380;2023-02-03T18:53:36;10.50;99.90
10788;DHT22;5446;50.826;4.380;2023-02-03T18:56:07;10.50;99.90
10788;DHT22;5446;50.826;4.380;2023-02-03T18:58:35;10.50;99.90
10788;DHT22;5446;50.826;4.380;2023-02-03T19:01:01;10.40;99.90
10788;DHT22;5446;50.826;4.380;2023-02-03T19:03:27;10.40;99.90
10788;DHT22;5446;50.826;4.380;2023-02-03T19:05:53;10.40;99.90